Superior, Colorado
Current Conditions -  °F | °C
As of 5:52 PM on Tuesday 21 Oct 2014 (Local Time) from KBJC Reporting Station
Broken Clouds Broken Clouds  
Wind Chill: 66°   Ceiling: 20000
Heat Index: 66°   Visibility: 50mi
Dew Point: 37°   Wind: 8mph
Humidity: 35%   Direction: 300°WNW
Pressure: 29.92"   Gusts: NA
Location:  39.9475°N, 105.17°W
Report Text: KBJC 212352Z 30007KT 50SM SCT070 SCT120 BKN200 19/03 A2992
Loading
Personal Weather Stations






























Interactive Weather Map
Tropical Storm Tracking
New forecast layout! Learn more

10-Day Weather Forecast

Advertisements
Track Severe Weather on mobile